Time;durP1;ratioP1;P1;durP2;ratioP2;P2;SDS_P1;SDS_P2;PMS_P1;PMS_P2;Temp;Humidity;BMP_temperature;BMP_pressure;BME280_temperature;BME280_humidity;BME280_pressure;Samples;Min_cycle;Max_cycle;Signal;HPM_P1;HPM_P2
2021/10/16 00:00:38;;;;;;;4.85;3.45;;;6.10;93.90;;;;;;5030560;28;20132;-68
2021/10/16 00:03:03;;;;;;;5.13;3.15;;;6.20;94.80;;;;;;5028077;28;20505;-67
2021/10/16 00:05:29;;;;;;;3.28;2.72;;;6.10;94.90;;;;;;5030024;28;20044;-67
2021/10/16 00:07:55;;;;;;;6.10;3.58;;;6.10;94.50;;;;;;5030398;28;20076;-67
2021/10/16 00:10:21;;;;;;;6.38;3.70;;;6.10;94.50;;;;;;5027692;28;20029;-67
2021/10/16 00:12:46;;;;;;;4.85;3.08;;;6.10;94.60;;;;;;5033365;28;20029;-67
2021/10/16 00:15:12;;;;;;;4.90;3.33;;;6.10;94.70;;;;;;5031376;28;20090;-67
2021/10/16 00:17:38;;;;;;;3.33;3.00;;;6.00;94.40;;;;;;5030435;28;20041;-67
2021/10/16 00:20:06;;;;;;;7.25;4.43;;;6.00;94.60;;;;;;5028951;28;20064;-67
2021/10/16 00:22:32;;;;;;;5.30;3.45;;;6.10;93.80;;;;;;5031177;28;20143;-67
2021/10/16 00:24:58;;;;;;;4.03;2.70;;;6.00;93.20;;;;;;5024517;28;20117;-67
2021/10/16 00:27:23;;;;;;;2.47;2.28;;;5.80;93.40;;;;;;5022128;28;20494;-67
2021/10/16 00:29:49;;;;;;;4.85;1.98;;;5.80;93.40;;;;;;5025481;28;20083;-67
2021/10/16 00:32:15;;;;;;;2.90;2.60;;;5.80;93.80;;;;;;5031538;28;20033;-67
2021/10/16 00:34:40;;;;;;;3.40;2.92;;;5.70;95.20;;;;;;5030479;28;20033;-67
2021/10/16 00:37:06;;;;;;;4.13;2.80;;;5.70;96.00;;;;;;5033206;28;20084;-67
2021/10/16 00:39:32;;;;;;;27.52;10.73;;;5.80;96.40;;;;;;5026985;28;20080;-68
2021/10/16 00:41:57;;;;;;;69.75;25.55;;;5.80;95.50;;;;;;5021865;28;20498;-67
2021/10/16 00:44:25;;;;;;;14.93;6.80;;;5.70;95.20;;;;;;5024491;28;20064;-67
2021/10/16 00:46:56;;;;;;;4.60;3.28;;;5.80;95.70;;;;;;5025241;28;20029;-67
2021/10/16 00:49:23;;;;;;;4.07;3.22;;;5.80;95.50;;;;;;5028541;28;20052;-67
2021/10/16 00:51:48;;;;;;;3.88;2.78;;;5.90;95.50;;;;;;5025518;28;20533;-67
2021/10/16 00:54:14;;;;;;;5.32;2.53;;;5.90;95.60;;;;;;5028159;28;20104;-67
2021/10/16 00:56:42;;;;;;;6.55;3.30;;;5.90;95.50;;;;;;5027430;28;20029;-67
2021/10/16 00:59:08;;;;;;;9.00;4.28;;;5.90;95.40;;;;;;5026104;28;20479;-67
2021/10/16 01:01:35;;;;;;;4.78;3.00;;;6.00;95.30;;;;;;5025521;28;20095;-67
2021/10/16 01:04:02;;;;;;;2.67;2.30;;;6.00;94.90;;;;;;5029915;28;20028;-67
2021/10/16 01:06:29;;;;;;;2.78;2.45;;;5.90;94.90;;;;;;5026845;28;20029;-67
2021/10/16 01:08:58;;;;;;;2.60;2.40;;;6.00;95.00;;;;;;5023473;28;20025;-67
2021/10/16 01:11:36;;;;;;;3.08;2.30;;;6.00;95.00;;;;;;5028753;28;20035;-67
2021/10/16 01:14:03;;;;;;;;;;;5.90;95.10;;;;;;5027225;28;20029;-67
2021/10/16 01:16:29;;;;;;;2.67;2.33;;;5.90;95.40;;;;;;5028683;28;19920;-68
2021/10/16 01:18:55;;;;;;;5.57;3.20;;;5.90;95.90;;;;;;5026214;28;20107;-67
2021/10/16 01:21:21;;;;;;;6.78;3.42;;;5.90;96.20;;;;;;5028574;28;20037;-67
2021/10/16 01:23:48;;;;;;;38.05;16.60;;;5.90;96.50;;;;;;5027342;28;20073;-67
2021/10/16 01:26:14;;;;;;;26.05;11.18;;;5.90;96.40;;;;;;5027532;28;20108;-67
2021/10/16 01:28:40;;;;;;;6.45;4.75;;;5.90;96.30;;;;;;5021460;28;20026;-67
2021/10/16 01:31:05;;;;;;;5.88;3.95;;;5.90;96.80;;;;;;5020412;28;20453;-67
2021/10/16 01:33:31;;;;;;;8.02;4.57;;;6.00;96.90;;;;;;5023812;28;20119;-67
2021/10/16 01:36:04;;;;;;;11.68;6.40;;;6.00;96.80;;;;;;5025435;28;20398;-67
2021/10/16 01:38:30;;;;;;;5.80;4.40;;;6.00;96.80;;;;;;5026029;28;20080;-67
2021/10/16 01:40:56;;;;;;;7.40;4.20;;;6.10;97.10;;;;;;5035994;28;20025;-67
2021/10/16 01:43:23;;;;;;;5.10;3.92;;;6.10;97.20;;;;;;5022254;28;20054;-67
2021/10/16 01:45:52;;;;;;;4.15;3.40;;;6.20;96.80;;;;;;5027948;28;20095;-67
2021/10/16 01:48:21;;;;;;;5.15;3.50;;;6.20;97.00;;;;;;5028635;28;20067;-67
2021/10/16 01:50:48;;;;;;;3.75;3.17;;;6.20;96.90;;;;;;5024508;28;20406;-67
2021/10/16 01:53:13;;;;;;;3.88;3.35;;;6.20;96.90;;;;;;5026064;28;20610;-67
2021/10/16 01:55:39;;;;;;;4.70;3.58;;;6.30;97.10;;;;;;5027761;28;20113;-67
2021/10/16 01:58:06;;;;;;;4.95;3.03;;;6.30;96.80;;;;;;5022481;28;20021;-67
2021/10/16 02:00:32;;;;;;;4.35;2.92;;;6.30;96.80;;;;;;5025515;28;20037;-67
2021/10/16 02:02:57;;;;;;;3.35;2.88;;;6.30;96.90;;;;;;5027109;28;20537;-67
2021/10/16 02:05:23;;;;;;;5.20;3.60;;;6.30;97.00;;;;;;5031966;28;20033;-68
2021/10/16 02:07:49;;;;;;;5.70;3.45;;;6.30;96.90;;;;;;5033687;28;20523;-67
2021/10/16 02:10:14;;;;;;;4.95;3.13;;;6.30;97.10;;;;;;5029310;28;20147;-67
2021/10/16 02:12:40;;;;;;;4.57;3.38;;;6.30;97.30;;;;;;5042466;28;20836;-67
2021/10/16 02:15:06;;;;;;;5.22;3.35;;;6.30;97.20;;;;;;5027951;28;20043;-68
2021/10/16 02:17:31;;;;;;;4.75;3.63;;;6.30;97.30;;;;;;5032241;28;20091;-67
2021/10/16 02:19:57;;;;;;;4.28;3.63;;;6.40;97.20;;;;;;5030310;28;20657;-67
2021/10/16 02:22:22;;;;;;;5.70;3.30;;;6.40;97.50;;;;;;5036658;28;20044;-67
2021/10/16 02:24:48;;;;;;;4.65;3.10;;;6.30;97.40;;;;;;5029571;28;20429;-67
2021/10/16 02:27:14;;;;;;;5.47;3.50;;;6.30;97.50;;;;;;5029123;28;20044;-67
2021/10/16 02:29:40;;;;;;;5.45;3.33;;;6.30;97.70;;;;;;5027221;28;20449;-68
2021/10/16 02:32:06;;;;;;;4.40;3.40;;;6.40;97.70;;;;;;5030142;28;20406;-67
2021/10/16 02:34:32;;;;;;;5.15;3.45;;;6.40;97.70;;;;;;5025987;28;20049;-67
2021/10/16 02:36:57;;;;;;;5.82;3.70;;;6.40;97.90;;;;;;5021166;28;20042;-67
2021/10/16 02:39:23;;;;;;;4.65;3.47;;;6.40;97.70;;;;;;5024725;28;20482;-68
2021/10/16 02:41:48;;;;;;;5.45;3.47;;;6.50;97.60;;;;;;5030990;28;20091;-67
2021/10/16 02:44:14;;;;;;;4.00;3.10;;;6.50;97.60;;;;;;5026448;28;20140;-67
2021/10/16 02:46:40;;;;;;;4.88;3.78;;;6.50;97.60;;;;;;5029852;28;20064;-67
2021/10/16 02:49:05;;;;;;;4.35;3.30;;;6.60;98.30;;;;;;5030961;28;20083;-67
2021/10/16 02:51:31;;;;;;;4.53;3.13;;;6.60;98.50;;;;;;5031013;28;20038;-67
2021/10/16 02:53:56;;;;;;;6.15;3.50;;;6.50;98.60;;;;;;5028668;28;20040;-67
2021/10/16 02:56:22;;;;;;;6.18;4.10;;;6.60;98.80;;;;;;5031203;28;20056;-67
2021/10/16 02:58:48;;;;;;;4.45;3.55;;;6.60;98.70;;;;;;5024890;28;20029;-67
2021/10/16 03:01:13;;;;;;;4.53;3.33;;;6.60;98.60;;;;;;5024395;28;20041;-68
2021/10/16 03:03:39;;;;;;;6.38;4.25;;;6.60;98.60;;;;;;5027050;28;20048;-67
2021/10/16 03:06:05;;;;;;;5.85;3.67;;;6.70;98.50;;;;;;5030708;28;20536;-67
2021/10/16 03:08:30;;;;;;;7.15;3.83;;;6.70;98.40;;;;;;5031048;28;20497;-67
2021/10/16 03:10:56;;;;;;;7.82;3.80;;;6.70;98.50;;;;;;5029624;28;20072;-67
2021/10/16 03:13:21;;;;;;;6.22;3.53;;;6.70;98.40;;;;;;5029693;28;20087;-67
2021/10/16 03:15:47;;;;;;;5.20;3.85;;;6.70;98.20;;;;;;5027089;28;20459;-67
2021/10/16 03:18:13;;;;;;;4.55;3.42;;;6.80;98.20;;;;;;5030926;28;20043;-67
2021/10/16 03:20:38;;;;;;;5.07;3.65;;;6.70;98.10;;;;;;5030180;28;20033;-67
2021/10/16 03:23:07;;;;;;;4.50;3.28;;;6.80;98.10;;;;;;5028054;28;20471;-67
2021/10/16 03:25:33;;;;;;;5.50;3.67;;;6.80;98.00;;;;;;5030669;28;20033;-67
2021/10/16 03:27:58;;;;;;;5.57;3.60;;;6.80;98.00;;;;;;5023922;28;20091;-67
2021/10/16 03:30:24;;;;;;;4.35;3.40;;;6.80;97.80;;;;;;5030590;28;20035;-67
2021/10/16 03:32:49;;;;;;;5.03;3.53;;;6.90;97.80;;;;;;5030474;28;20796;-67
2021/10/16 03:35:15;;;;;;;5.57;3.42;;;6.90;97.60;;;;;;5026072;28;20061;-67
2021/10/16 03:37:41;;;;;;;4.53;3.38;;;6.80;97.30;;;;;;5028711;28;20088;-67
2021/10/16 03:40:07;;;;;;;6.68;3.60;;;6.80;97.70;;;;;;5031052;28;20043;-67
2021/10/16 03:42:33;;;;;;;5.55;3.97;;;6.80;97.90;;;;;;5029145;28;20501;-67
2021/10/16 03:44:58;;;;;;;5.40;3.78;;;6.80;98.20;;;;;;5024845;28;20033;-67
2021/10/16 03:47:24;;;;;;;4.90;3.83;;;6.80;98.90;;;;;;5028639;28;20466;-67
2021/10/16 03:49:50;;;;;;;4.38;3.33;;;6.80;98.50;;;;;;5028930;28;20590;-67
2021/10/16 03:52:16;;;;;;;5.25;3.10;;;6.80;98.30;;;;;;5025016;28;20105;-67
2021/10/16 03:54:41;;;;;;;6.00;3.78;;;6.90;98.10;;;;;;5028805;28;20041;-67
2021/10/16 03:57:07;;;;;;;5.72;3.92;;;6.80;98.40;;;;;;5039562;28;20108;-67
2021/10/16 03:59:33;;;;;;;4.80;3.10;;;6.80;98.40;;;;;;5027884;28;20038;-67
2021/10/16 04:01:58;;;;;;;7.35;3.35;;;6.80;98.30;;;;;;5027452;28;20041;-67
2021/10/16 04:04:24;;;;;;;5.70;3.50;;;6.80;98.10;;;;;;5022337;28;20063;-67
2021/10/16 04:06:50;;;;;;;4.15;3.25;;;6.90;98.10;;;;;;5031527;28;20106;-67
2021/10/16 04:09:15;;;;;;;6.68;4.45;;;6.90;98.10;;;;;;5030580;28;20021;-67
2021/10/16 04:11:41;;;;;;;7.22;4.05;;;6.90;98.20;;;;;;5029543;28;20018;-67
2021/10/16 04:14:07;;;;;;;7.05;4.20;;;7.00;98.00;;;;;;5023856;28;20039;-67
2021/10/16 04:16:32;;;;;;;5.60;3.85;;;6.90;98.10;;;;;;5027736;28;20040;-67
2021/10/16 04:18:58;;;;;;;4.38;3.50;;;6.90;97.90;;;;;;5028560;28;20037;-67
2021/10/16 04:21:23;;;;;;;4.82;3.42;;;7.00;97.90;;;;;;5028768;28;20491;-68
2021/10/16 04:23:49;;;;;;;4.55;3.40;;;7.00;97.60;;;;;;5025066;28;20041;-67
2021/10/16 04:26:14;;;;;;;4.10;3.13;;;7.00;97.50;;;;;;5025722;28;20018;-67
2021/10/16 04:28:40;;;;;;;4.93;3.53;;;7.00;97.30;;;;;;5027247;28;20778;-68
2021/10/16 04:31:06;;;;;;;4.60;3.20;;;6.90;97.20;;;;;;5028147;28;20491;-68
2021/10/16 04:33:31;;;;;;;17.67;9.15;;;7.00;97.20;;;;;;5029133;28;20055;-67
2021/10/16 04:35:57;;;;;;;14.05;6.15;;;7.00;97.20;;;;;;5026144;28;21825;-67
2021/10/16 04:38:22;;;;;;;10.45;5.57;;;7.00;97.50;;;;;;5028006;28;20035;-67
2021/10/16 04:40:48;;;;;;;5.78;4.35;;;7.00;97.30;;;;;;5025162;28;20115;-67
2021/10/16 04:43:14;;;;;;;8.43;4.88;;;7.00;97.10;;;;;;5028129;28;20455;-68
2021/10/16 04:45:39;;;;;;;6.57;4.00;;;7.00;97.40;;;;;;5026551;28;20048;-67
2021/10/16 04:48:07;;;;;;;4.93;3.53;;;6.90;97.50;;;;;;5028124;28;20057;-67
2021/10/16 04:50:33;;;;;;;4.40;3.42;;;6.90;97.60;;;;;;5023319;28;20071;-67
2021/10/16 04:52:58;;;;;;;4.38;2.75;;;6.90;97.80;;;;;;5027034;28;20475;-68
2021/10/16 04:55:24;;;;;;;6.40;3.58;;;6.90;97.70;;;;;;5028057;28;20029;-67
2021/10/16 04:57:50;;;;;;;5.00;3.13;;;6.90;97.40;;;;;;5029450;28;20035;-67
2021/10/16 05:00:17;;;;;;;4.80;3.28;;;6.90;97.20;;;;;;5019864;28;20044;-67
2021/10/16 05:02:42;;;;;;;4.57;3.33;;;6.80;97.20;;;;;;5020733;28;20037;-67
2021/10/16 05:05:08;;;;;;;4.10;3.28;;;6.80;97.40;;;;;;5028208;28;20453;-67
2021/10/16 05:07:33;;;;;;;5.40;3.70;;;6.80;97.60;;;;;;5027077;28;20034;-67
2021/10/16 05:09:59;;;;;;;3.10;2.78;;;6.80;97.40;;;;;;5026923;28;20468;-67
2021/10/16 05:12:25;;;;;;;4.07;3.67;;;6.80;97.30;;;;;;5027626;28;20079;-67
2021/10/16 05:14:50;;;;;;;5.03;3.50;;;6.80;97.20;;;;;;5026108;28;20448;-67
2021/10/16 05:17:16;;;;;;;4.65;3.40;;;6.80;97.30;;;;;;5026873;28;20108;-68
2021/10/16 05:19:41;;;;;;;5.80;3.60;;;6.80;97.40;;;;;;5027066;28;20055;-68
2021/10/16 05:22:08;;;;;;;4.63;3.88;;;6.80;97.30;;;;;;5026844;28;20033;-68
2021/10/16 05:24:34;;;;;;;4.95;3.70;;;6.80;97.40;;;;;;5026699;28;20021;-67
2021/10/16 05:27:00;;;;;;;4.10;3.28;;;6.90;97.60;;;;;;5026836;28;20470;-67
2021/10/16 05:29:25;;;;;;;5.00;3.58;;;6.90;97.50;;;;;;5017793;28;20040;-67
2021/10/16 05:31:51;;;;;;;4.82;3.45;;;7.00;97.50;;;;;;5024257;28;20057;-68
2021/10/16 05:34:16;;;;;;;4.78;3.65;;;6.90;97.30;;;;;;4990608;28;1103446;-68
2021/10/16 05:36:42;;;;;;;6.53;3.50;;;6.90;97.30;;;;;;5025512;28;20108;-68
2021/10/16 05:39:08;;;;;;;4.93;3.63;;;6.90;97.50;;;;;;5030485;28;20026;-68
2021/10/16 05:41:33;;;;;;;9.48;3.85;;;7.00;97.60;;;;;;5024701;28;20037;-67
2021/10/16 05:43:59;;;;;;;6.20;3.80;;;7.00;97.80;;;;;;5029726;28;20029;-67
2021/10/16 05:46:24;;;;;;;6.18;4.43;;;6.90;98.30;;;;;;5028139;28;20398;-67
2021/10/16 05:48:50;;;;;;;8.60;4.07;;;6.90;97.80;;;;;;5032039;28;20029;-67
2021/10/16 05:51:16;;;;;;;6.65;3.50;;;7.00;98.10;;;;;;5037097;28;20033;-67
2021/10/16 05:53:41;;;;;;;4.47;3.60;;;7.00;98.40;;;;;;5030640;28;20021;-67
2021/10/16 05:56:07;;;;;;;4.20;3.55;;;7.00;97.70;;;;;;5027818;28;20439;-67
2021/10/16 05:58:34;;;;;;;4.32;3.38;;;7.00;97.50;;;;;;5031071;28;20030;-67
2021/10/16 06:01:02;;;;;;;6.03;3.78;;;7.00;97.20;;;;;;5025406;28;20033;-67
2021/10/16 06:03:28;;;;;;;4.87;3.20;;;7.00;97.30;;;;;;5033873;28;20033;-68
2021/10/16 06:05:57;;;;;;;5.25;3.50;;;7.00;97.20;;;;;;5026892;28;20033;-67
2021/10/16 06:08:23;;;;;;;4.60;3.40;;;6.90;97.10;;;;;;5033312;28;20021;-68
2021/10/16 06:10:48;;;;;;;5.53;3.47;;;6.90;97.20;;;;;;5032287;28;20467;-68
2021/10/16 06:13:14;;;;;;;4.70;3.38;;;6.90;97.40;;;;;;5027441;28;20013;-67
2021/10/16 06:15:40;;;;;;;4.05;3.60;;;6.90;97.40;;;;;;5029345;28;20033;-68
2021/10/16 06:18:10;;;;;;;9.25;5.28;;;7.00;97.40;;;;;;5022725;28;20036;-68
2021/10/16 06:20:35;;;;;;;7.15;4.63;;;7.00;97.50;;;;;;5026873;28;20504;-68
2021/10/16 06:23:01;;;;;;;5.22;3.95;;;7.00;97.60;;;;;;5026366;28;20109;-68
2021/10/16 06:25:27;;;;;;;6.68;4.50;;;7.10;97.70;;;;;;5026244;28;20051;-68
2021/10/16 06:27:52;;;;;;;13.30;8.45;;;7.10;97.50;;;;;;5030038;28;20036;-67
2021/10/16 06:30:18;;;;;;;22.33;13.68;;;7.10;97.60;;;;;;5021860;28;20129;-67
2021/10/16 06:32:44;;;;;;;15.70;10.77;;;7.20;97.90;;;;;;5029096;28;20475;-67
2021/10/16 06:35:09;;;;;;;22.20;14.15;;;7.10;98.40;;;;;;5030420;28;20053;-68
2021/10/16 06:37:35;;;;;;;20.15;9.82;;;7.20;98.20;;;;;;5028101;28;20059;-68
2021/10/16 06:40:01;;;;;;;15.15;9.60;;;7.20;98.10;;;;;;5026557;28;20463;-67
2021/10/16 06:42:27;;;;;;;12.15;8.15;;;7.20;98.30;;;;;;5030113;28;20037;-67
2021/10/16 06:44:53;;;;;;;7.03;5.50;;;7.30;98.10;;;;;;5026352;28;20029;-67
2021/10/16 06:47:18;;;;;;;8.32;5.45;;;7.30;97.90;;;;;;5028430;28;20127;-68
2021/10/16 06:49:44;;;;;;;5.47;4.60;;;7.30;97.70;;;;;;5028816;28;20560;-68
2021/10/16 06:52:09;;;;;;;8.35;5.90;;;7.40;97.60;;;;;;5032927;28;20033;-68
2021/10/16 06:54:35;;;;;;;7.72;5.88;;;7.40;97.60;;;;;;5030902;28;20026;-68
2021/10/16 06:57:00;;;;;;;7.40;5.40;;;7.40;98.00;;;;;;5030162;28;20372;-68
2021/10/16 06:59:26;;;;;;;10.65;5.80;;;7.50;97.80;;;;;;5029594;28;20033;-68
2021/10/16 07:01:52;;;;;;;9.80;6.43;;;7.40;98.10;;;;;;5030562;28;20457;-69
2021/10/16 07:04:17;;;;;;;8.02;5.55;;;7.50;98.20;;;;;;5032491;28;20108;-68
2021/10/16 07:06:43;;;;;;;8.00;4.70;;;7.60;98.20;;;;;;5030840;28;20151;-67
2021/10/16 07:09:08;;;;;;;4.50;4.10;;;7.60;98.30;;;;;;5030748;28;20022;-68
2021/10/16 07:11:34;;;;;;;11.23;5.78;;;7.60;98.00;;;;;;5031631;28;20025;-68
2021/10/16 07:14:00;;;;;;;8.82;5.72;;;7.60;97.80;;;;;;5031137;28;20056;-68
2021/10/16 07:16:26;;;;;;;9.88;5.65;;;7.70;98.00;;;;;;5029627;28;20087;-68
2021/10/16 07:18:51;;;;;;;8.13;5.35;;;7.70;98.40;;;;;;5022831;28;20029;-68
2021/10/16 07:21:17;;;;;;;9.45;6.05;;;7.70;98.00;;;;;;5024397;28;20044;-68
2021/10/16 07:23:45;;;;;;;11.25;6.25;;;7.70;98.20;;;;;;5024145;28;20043;-68
2021/10/16 07:26:11;;;;;;;9.00;5.88;;;7.80;98.40;;;;;;5026115;28;20037;-68
2021/10/16 07:28:37;;;;;;;13.57;6.07;;;7.80;98.10;;;;;;5026233;28;20031;-68
2021/10/16 07:31:03;;;;;;;12.25;6.05;;;7.80;98.00;;;;;;5030191;28;20052;-68
2021/10/16 07:33:29;;;;;;;12.07;7.18;;;7.90;98.00;;;;;;5030255;28;20084;-68
2021/10/16 07:35:54;;;;;;;10.35;6.75;;;8.00;98.50;;;;;;5027196;28;20035;-68
2021/10/16 07:38:20;;;;;;;12.48;7.50;;;8.10;98.60;;;;;;5026329;28;20091;-69
2021/10/16 07:40:45;;;;;;;15.82;8.30;;;8.10;98.50;;;;;;5028517;28;20035;-68
2021/10/16 07:43:11;;;;;;;18.75;8.82;;;8.20;98.50;;;;;;5028499;28;20685;-68
2021/10/16 07:45:37;;;;;;;19.58;9.50;;;8.30;98.50;;;;;;5025198;28;20026;-69
2021/10/16 07:48:04;;;;;;;17.10;9.73;;;8.30;98.60;;;;;;5028190;28;20628;-68
2021/10/16 07:50:29;;;;;;;21.90;11.80;;;8.40;99.20;;;;;;5030129;28;20557;-68
2021/10/16 07:52:55;;;;;;;24.42;12.40;;;8.50;99.60;;;;;;5028136;28;20028;-68
2021/10/16 07:55:21;;;;;;;21.10;11.23;;;8.50;99.30;;;;;;5022146;28;20482;-67
2021/10/16 07:57:46;;;;;;;26.40;12.63;;;8.60;99.70;;;;;;5025716;28;20123;-67
2021/10/16 08:00:12;;;;;;;24.65;11.90;;;8.70;99.70;;;;;;5025819;28;20044;-67
2021/10/16 08:02:39;;;;;;;28.80;14.25;;;8.70;99.90;;;;;;5028121;28;20037;-67
2021/10/16 08:05:05;;;;;;;29.60;13.25;;;8.70;99.90;;;;;;5027053;28;20056;-68
2021/10/16 08:07:31;;;;;;;28.00;14.18;;;8.80;99.90;;;;;;5030819;28;20033;-67
2021/10/16 08:09:57;;;;;;;30.77;14.63;;;8.80;99.90;;;;;;5027803;28;20079;-67
2021/10/16 08:12:23;;;;;;;39.67;15.15;;;8.90;99.90;;;;;;5022875;28;20421;-67
2021/10/16 08:14:49;;;;;;;33.65;15.00;;;8.90;99.90;;;;;;5031887;28;20072;-68
2021/10/16 08:17:16;;;;;;;30.00;13.63;;;8.90;99.90;;;;;;5028961;28;20446;-68
2021/10/16 08:19:41;;;;;;;30.33;13.38;;;8.90;99.90;;;;;;5029528;28;20033;-67
2021/10/16 08:22:09;;;;;;;32.80;14.98;;;8.90;99.90;;;;;;5031317;28;20487;-67
2021/10/16 08:24:35;;;;;;;37.00;15.27;;;8.90;99.90;;;;;;5029802;28;20104;-67
2021/10/16 08:27:00;;;;;;;31.73;15.13;;;8.80;99.90;;;;;;5025649;28;20461;-67
2021/10/16 08:29:26;;;;;;;32.47;15.15;;;8.80;99.90;;;;;;5029625;28;20080;-68
2021/10/16 08:31:52;;;;;;;32.90;14.60;;;8.80;99.90;;;;;;5027148;28;20084;-68
2021/10/16 08:34:17;;;;;;;32.45;14.82;;;8.80;99.90;;;;;;5027478;28;20514;-68
2021/10/16 08:36:43;;;;;;;38.75;15.50;;;8.90;99.90;;;;;;5030270;28;20096;-68
2021/10/16 08:39:09;;;;;;;33.35;14.75;;;8.90;99.90;;;;;;5025268;28;20025;-68
2021/10/16 08:41:35;;;;;;;30.88;14.50;;;8.90;99.90;;;;;;5029561;28;20038;-68
2021/10/16 08:44:01;;;;;;;35.05;15.50;;;8.90;99.90;;;;;;5024372;28;20036;-68
2021/10/16 08:46:27;;;;;;;33.67;15.23;;;9.00;99.90;;;;;;5026271;28;20029;-68
2021/10/16 08:48:59;;;;;;;37.10;16.33;;;9.00;99.90;;;;;;5029233;28;20021;-68
2021/10/16 08:51:25;;;;;;;36.47;15.93;;;9.10;99.90;;;;;;5025354;28;20129;-68
2021/10/16 08:53:50;;;;;;;35.50;16.05;;;9.10;99.90;;;;;;5025761;28;20446;-67
2021/10/16 08:56:19;;;;;;;31.83;15.70;;;9.00;99.90;;;;;;5036672;28;20052;-68
2021/10/16 08:58:45;;;;;;;33.97;14.93;;;9.00;99.90;;;;;;5026189;28;20026;-68
2021/10/16 09:01:11;;;;;;;39.80;17.65;;;9.10;99.90;;;;;;5024278;28;20494;-68
2021/10/16 09:03:58;;;;;;;32.40;16.02;;;9.00;99.90;;;;;;5014886;28;21836;-68
2021/10/16 09:06:35;;;;;;;41.88;17.52;;;9.00;99.90;;;;;;5026439;28;20363;-69
2021/10/16 09:09:12;;;;;;;37.88;16.60;;;9.10;99.90;;;;;;5022761;28;20033;-69
2021/10/16 09:11:45;;;;;;;36.88;15.90;;;9.10;99.90;;;;;;5021946;28;20037;-68
2021/10/16 09:14:32;;;;;;;36.65;16.98;;;9.10;99.90;;;;;;5021512;28;20037;-68
2021/10/16 09:17:03;;;;;;;32.22;15.50;;;9.10;99.90;;;;;;5024341;28;20037;-68
2021/10/16 09:19:30;;;;;;;36.13;15.98;;;9.10;99.90;;;;;;5025909;28;20029;-68
2021/10/16 09:22:11;;;;;;;31.77;16.67;;;9.20;99.90;;;;;;5024307;28;20022;-68
2021/10/16 09:24:41;;;;;;;32.63;16.00;;;9.20;99.90;;;;;;5026224;28;20038;-68
2021/10/16 09:27:11;;;;;;;30.98;17.50;;;9.30;99.90;;;;;;5022680;28;20017;-68
2021/10/16 09:29:39;;;;;;;33.78;16.45;;;9.30;99.90;;;;;;5027915;28;20029;-67
2021/10/16 09:32:10;;;;;;;38.17;16.00;;;9.30;99.90;;;;;;5026427;28;20042;-68
2021/10/16 09:34:44;;;;;;;32.28;15.10;;;9.30;99.90;;;;;;5026900;28;20049;-68
2021/10/16 09:37:11;;;;;;;35.38;16.33;;;9.30;99.90;;;;;;5028292;28;20644;-68
2021/10/16 09:39:40;;;;;;;31.80;15.25;;;9.30;99.90;;;;;;5027244;28;20108;-68
2021/10/16 09:42:08;;;;;;;35.70;17.02;;;9.40;99.90;;;;;;5027596;28;20036;-67
2021/10/16 09:44:37;;;;;;;32.03;16.17;;;9.40;99.90;;;;;;5020407;28;20065;-68
2021/10/16 09:47:15;;;;;;;29.75;15.32;;;9.40;99.90;;;;;;5026159;28;20510;-67
2021/10/16 09:49:50;;;;;;;30.60;16.02;;;9.40;99.90;;;;;;5026915;28;20486;-67
2021/10/16 09:52:20;;;;;;;33.65;17.75;;;9.50;99.90;;;;;;5029862;28;20089;-68
2021/10/16 09:54:48;;;;;;;37.08;15.98;;;9.50;99.90;;;;;;5028720;28;20032;-68
2021/10/16 09:57:19;;;;;;;34.75;15.70;;;9.50;99.90;;;;;;5028086;28;20075;-68
2021/10/16 09:59:45;;;;;;;32.67;15.57;;;9.50;99.90;;;;;;5025265;28;20033;-68
2021/10/16 10:02:12;;;;;;;34.42;15.02;;;9.50;99.80;;;;;;5026601;28;20535;-68
2021/10/16 10:04:45;;;;;;;36.10;16.08;;;9.60;99.90;;;;;;5026177;28;20030;-68
2021/10/16 10:07:12;;;;;;;30.55;15.98;;;9.60;99.40;;;;;;5027601;28;20068;-68
2021/10/16 10:09:40;;;;;;;32.33;14.50;;;9.60;99.80;;;;;;5027106;28;20030;-68
2021/10/16 10:12:09;;;;;;;33.17;14.85;;;9.60;99.60;;;;;;5026130;28;20040;-68
2021/10/16 10:14:41;;;;;;;32.13;16.70;;;9.70;99.80;;;;;;5029291;28;20014;-68
2021/10/16 10:17:08;;;;;;;30.92;15.40;;;9.60;99.80;;;;;;5026450;28;20449;-68
2021/10/16 10:19:50;;;;;;;31.80;16.13;;;9.60;99.50;;;;;;5024444;28;20111;-68
2021/10/16 10:22:18;;;;;;;31.38;14.30;;;9.70;99.60;;;;;;5026561;28;20037;-68
2021/10/16 10:24:47;;;;;;;32.00;15.80;;;9.70;99.50;;;;;;5030163;28;20026;-68
2021/10/16 10:27:15;;;;;;;36.10;16.38;;;9.70;99.40;;;;;;5032263;28;20045;-69
2021/10/16 10:29:45;;;;;;;30.50;15.65;;;9.70;99.50;;;;;;5027969;28;20017;-68
2021/10/16 10:32:21;;;;;;;31.63;16.05;;;9.70;99.30;;;;;;5030617;28;20524;-68
2021/10/16 10:35:03;;;;;;;33.50;15.95;;;9.80;99.40;;;;;;5032804;28;20053;-68
2021/10/16 10:37:41;;;;;;;32.47;14.82;;;9.80;99.10;;;;;;5038417;28;20417;-68
2021/10/16 10:40:15;;;;;;;32.65;15.98;;;9.90;98.90;;;;;;5031548;28;20022;-68
2021/10/16 10:43:01;;;;;;;32.83;15.32;;;9.90;98.70;;;;;;5033418;28;20115;-68
2021/10/16 10:45:35;;;;;;;32.53;14.90;;;9.90;98.60;;;;;;5030190;28;20049;-68
2021/10/16 10:48:03;;;;;;;29.83;14.82;;;9.90;98.70;;;;;;5032135;28;20045;-68
2021/10/16 10:50:53;;;;;;;30.55;15.10;;;9.90;98.30;;;;;;5035669;28;20029;-68
2021/10/16 10:53:33;;;;;;;31.88;15.15;;;10.00;98.20;;;;;;5032808;28;20057;-68
2021/10/16 10:56:00;;;;;;;33.65;16.55;;;10.10;98.70;;;;;;5033026;28;20031;-68
2021/10/16 10:59:08;;;;;;;30.67;15.27;;;10.10;98.80;;;;;;5034907;28;20025;-68
2021/10/16 11:01:51;;;;;;;29.73;15.20;;;10.10;98.60;;;;;;5032134;28;20037;-68
2021/10/16 11:04:33;;;;;;;27.27;14.50;;;10.20;98.30;;;;;;5021308;28;20453;-68
2021/10/16 11:07:02;;;;;;;31.10;14.85;;;10.20;98.00;;;;;;5029927;28;20066;-68
2021/10/16 11:09:27;;;;;;;25.33;13.85;;;10.20;97.90;;;;;;5029782;28;20024;-68
2021/10/16 11:11:53;;;;;;;26.58;15.50;;;10.30;98.00;;;;;;5031593;28;20021;-68
2021/10/16 11:14:19;;;;;;;31.02;15.75;;;10.30;97.70;;;;;;5031090;28;20049;-68
2021/10/16 11:17:02;;;;;;;28.98;14.25;;;10.30;97.90;;;;;;5028961;28;20804;-68
2021/10/16 11:19:28;;;;;;;30.40;14.50;;;10.40;97.80;;;;;;5030884;28;20481;-68
2021/10/16 11:21:58;;;;;;;24.88;13.55;;;10.40;97.50;;;;;;5031905;28;20104;-68
2021/10/16 11:24:26;;;;;;;28.88;14.73;;;10.50;97.30;;;;;;5032180;28;20368;-68
2021/10/16 11:26:59;;;;;;;28.73;15.55;;;10.50;97.60;;;;;;5030231;28;20022;-68
2021/10/16 11:29:28;;;;;;;27.20;14.48;;;10.50;97.20;;;;;;5029772;28;20509;-68
2021/10/16 11:32:18;;;;;;;25.25;14.80;;;10.60;97.00;;;;;;5025641;28;20049;-68
2021/10/16 11:35:07;;;;;;;29.45;14.10;;;10.50;96.90;;;;;;5017925;28;20049;-68
2021/10/16 11:37:46;;;;;;;23.13;13.18;;;10.60;96.60;;;;;;5027373;28;20030;-68
2021/10/16 11:40:18;;;;;;;24.73;13.07;;;10.60;96.60;;;;;;5026446;28;20075;-68
2021/10/16 11:42:45;;;;;;;25.73;13.02;;;10.70;96.50;;;;;;5024781;28;20037;-68
2021/10/16 11:45:15;;;;;;;25.05;13.43;;;10.70;96.00;;;;;;5024587;28;20025;-69
2021/10/16 11:47:44;;;;;;;21.83;12.48;;;10.80;96.00;;;;;;5025923;28;20124;-68
2021/10/16 11:50:22;;;;;;;24.42;13.45;;;10.80;95.70;;;;;;5019582;28;20433;-68
2021/10/16 11:52:50;;;;;;;21.02;12.63;;;10.90;95.70;;;;;;5024148;28;20034;-68
2021/10/16 11:55:23;;;;;;;21.65;13.13;;;10.90;95.60;;;;;;5026659;28;20040;-68
2021/10/16 11:57:50;;;;;;;22.10;12.00;;;10.90;95.70;;;;;;5023346;28;20024;-67
2021/10/16 12:00:23;;;;;;;20.85;12.63;;;11.00;95.50;;;;;;5027340;28;20137;-68
2021/10/16 12:02:49;;;;;;;21.95;11.93;;;11.00;95.20;;;;;;5023070;28;20045;-69
2021/10/16 12:05:16;;;;;;;20.45;11.50;;;11.10;94.60;;;;;;5024518;28;20040;-68
2021/10/16 12:07:44;;;;;;;24.05;13.25;;;11.10;94.50;;;;;;5027132;28;20018;-68
2021/10/16 12:10:25;;;;;;;17.50;11.32;;;11.20;94.60;;;;;;5022315;28;20474;-68
2021/10/16 12:13:00;;;;;;;16.83;10.27;;;11.40;95.10;;;;;;5026657;28;20402;-68
2021/10/16 12:15:34;;;;;;;16.35;9.15;;;11.40;93.20;;;;;;5022255;28;20388;-68
2021/10/16 12:17:59;;;;;;;20.63;11.27;;;11.50;93.00;;;;;;5020772;28;20522;-69
2021/10/16 12:20:25;;;;;;;16.23;10.30;;;11.50;93.60;;;;;;5025313;28;20033;-69
2021/10/16 12:22:59;;;;;;;18.60;10.38;;;11.60;92.60;;;;;;5023753;28;20037;-68
2021/10/16 12:25:25;;;;;;;17.10;10.48;;;11.60;92.00;;;;;;5021125;28;20112;-68
2021/10/16 12:28:01;;;;;;;17.33;10.20;;;11.50;92.10;;;;;;5023758;28;20570;-69
2021/10/16 12:30:26;;;;;;;18.15;8.80;;;11.50;91.80;;;;;;5026049;28;20029;-68
2021/10/16 12:33:21;;;;;;;12.90;8.23;;;11.60;91.80;;;;;;5021158;28;20028;-68
2021/10/16 12:35:56;;;;;;;12.93;8.23;;;11.60;91.60;;;;;;5017552;28;20104;-68
2021/10/16 12:38:22;;;;;;;12.95;7.88;;;11.80;91.40;;;;;;5021308;28;20022;-69
2021/10/16 12:40:48;;;;;;;14.77;9.00;;;11.70;90.90;;;;;;5021881;28;20525;-68
2021/10/16 12:43:28;;;;;;;13.48;8.65;;;11.80;91.80;;;;;;5024926;28;20108;-69
2021/10/16 12:45:55;;;;;;;14.07;9.00;;;11.80;91.90;;;;;;5018886;28;20817;-68
2021/10/16 12:48:32;;;;;;;12.55;7.90;;;11.80;90.70;;;;;;5020380;28;20468;-68
2021/10/16 12:51:00;;;;;;;12.57;7.85;;;11.80;91.20;;;;;;5021388;28;20022;-68